sensor_id;sensor_type;location;lat;lon;timestamp;pressure;altitude;pressure_sealevel;temperature;humidity
55044;BME280;54902;50.420;18.854;2023-05-11T00:00:08;101485.49;;;12.00;46.21
55044;BME280;54902;50.420;18.854;2023-05-11T00:00:42;101481.77;;;12.01;46.22
55044;BME280;54902;50.420;18.854;2023-05-11T00:01:14;101480.14;;;11.98;46.22
55044;BME280;54902;50.420;18.854;2023-05-11T00:01:45;101482.88;;;11.98;46.23
55044;BME280;54902;50.420;18.854;2023-05-11T00:02:16;101478.51;;;11.96;46.24
55044;BME280;54902;50.420;18.854;2023-05-11T00:02:47;101472.91;;;11.97;46.25
55044;BME280;54902;50.420;18.854;2023-05-11T00:03:18;101478.51;;;11.96;46.25
55044;BME280;54902;50.420;18.854;2023-05-11T00:03:50;101483.98;;;11.96;46.27
55044;BME280;54902;50.420;18.854;2023-05-11T00:04:21;101474.02;;;11.95;46.28
55044;BME280;54902;50.420;18.854;2023-05-11T00:04:53;101479.49;;;11.95;46.26
55044;BME280;54902;50.420;18.854;2023-05-11T00:05:24;101475.90;;;11.94;46.27
55044;BME280;54902;50.420;18.854;2023-05-11T00:05:55;101469.52;;;11.94;46.30
55044;BME280;54902;50.420;18.854;2023-05-11T00:06:26;101471.53;;;11.92;46.33
55044;BME280;54902;50.420;18.854;2023-05-11T00:06:57;101480.61;;;11.92;46.30
55044;BME280;54902;50.420;18.854;2023-05-11T00:07:28;101477.01;;;11.92;46.33
55044;BME280;54902;50.420;18.854;2023-05-11T00:07:59;101471.53;;;11.92;46.32
55044;BME280;54902;50.420;18.854;2023-05-11T00:08:30;101474.40;;;11.90;46.34
55044;BME280;54902;50.420;18.854;2023-05-11T00:09:01;101481.71;;;11.90;46.34
55044;BME280;54902;50.420;18.854;2023-05-11T00:09:32;101476.23;;;11.90;46.42
55044;BME280;54902;50.420;18.854;2023-05-11T00:10:06;101471.74;;;11.89;46.39
55044;BME280;54902;50.420;18.854;2023-05-11T00:10:37;101474.48;;;11.89;46.37
55044;BME280;54902;50.420;18.854;2023-05-11T00:11:08;101478.98;;;11.90;46.37
55044;BME280;54902;50.420;18.854;2023-05-11T00:11:39;101466.27;;;11.89;46.38
55044;BME280;54902;50.420;18.854;2023-05-11T00:12:10;101483.59;;;11.89;46.39
55044;BME280;54902;50.420;18.854;2023-05-11T00:12:43;101475.50;;;11.88;46.42
55044;BME280;54902;50.420;18.854;2023-05-11T00:13:14;101464.55;;;11.88;46.43
55044;BME280;54902;50.420;18.854;2023-05-11T00:13:45;101473.62;;;11.88;46.42
55044;BME280;54902;50.420;18.854;2023-05-11T00:14:16;101471.74;;;11.89;46.42
55044;BME280;54902;50.420;18.854;2023-05-11T00:14:47;101467.28;;;11.88;46.41
55044;BME280;54902;50.420;18.854;2023-05-11T00:15:18;101468.27;;;11.87;46.43
55044;BME280;54902;50.420;18.854;2023-05-11T00:15:49;101477.35;;;11.87;46.42
55044;BME280;54902;50.420;18.854;2023-05-11T00:16:20;101474.60;;;11.87;46.42
55044;BME280;54902;50.420;18.854;2023-05-11T00:16:51;101474.60;;;11.87;46.43
55044;BME280;54902;50.420;18.854;2023-05-11T00:17:22;101468.27;;;11.87;46.43
55044;BME280;54902;50.420;18.854;2023-05-11T00:17:53;101477.48;;;11.86;46.44
55044;BME280;54902;50.420;18.854;2023-05-11T00:18:23;101471.01;;;11.87;46.49
55044;BME280;54902;50.420;18.854;2023-05-11T00:18:54;101482.09;;;11.85;46.47
55044;BME280;54902;50.420;18.854;2023-05-11T00:19:25;101475.72;;;11.85;46.47
55044;BME280;54902;50.420;18.854;2023-05-11T00:19:57;101470.24;;;11.85;46.46
55044;BME280;54902;50.420;18.854;2023-05-11T00:20:28;101473.87;;;11.85;46.48
55044;BME280;54902;50.420;18.854;2023-05-11T00:20:59;101468.52;;;11.84;46.52
55044;BME280;54902;50.420;18.854;2023-05-11T00:21:31;101469.38;;;11.84;46.53
55044;BME280;54902;50.420;18.854;2023-05-11T00:22:02;101468.52;;;11.84;46.52
55044;BME280;54902;50.420;18.854;2023-05-11T00:22:33;101473.99;;;11.84;46.52
55044;BME280;54902;50.420;18.854;2023-05-11T00:23:04;101472.98;;;11.85;46.52
55044;BME280;54902;50.420;18.854;2023-05-11T00:23:35;101469.51;;;11.83;46.52
55044;BME280;54902;50.420;18.854;2023-05-11T00:24:07;101472.98;;;11.85;46.52
55044;BME280;54902;50.420;18.854;2023-05-11T00:24:38;101473.99;;;11.84;46.57
55044;BME280;54902;50.420;18.854;2023-05-11T00:25:09;101473.99;;;11.84;46.58
55044;BME280;54902;50.420;18.854;2023-05-11T00:25:40;101480.34;;;11.84;46.60
55044;BME280;54902;50.420;18.854;2023-05-11T00:26:11;101473.10;;;11.83;46.58
55044;BME280;54902;50.420;18.854;2023-05-11T00:26:42;101470.36;;;11.83;46.63
55044;BME280;54902;50.420;18.854;2023-05-11T00:27:13;101474.98;;;11.83;46.63
55044;BME280;54902;50.420;18.854;2023-05-11T00:27:43;101466.77;;;11.83;46.65
55044;BME280;54902;50.420;18.854;2023-05-11T00:28:15;101474.98;;;11.83;46.67
55044;BME280;54902;50.420;18.854;2023-05-11T00:28:46;101470.49;;;11.82;46.67
55044;BME280;54902;50.420;18.854;2023-05-11T00:29:17;101474.98;;;11.83;46.71
55044;BME280;54902;50.420;18.854;2023-05-11T00:29:48;101464.15;;;11.81;46.70
55044;BME280;54902;50.420;18.854;2023-05-11T00:30:19;101475.10;;;11.81;46.71
55044;BME280;54902;50.420;18.854;2023-05-11T00:30:55;101474.20;;;11.81;46.66
55044;BME280;54902;50.420;18.854;2023-05-11T00:31:26;101463.27;;;11.81;46.65
55044;BME280;54902;50.420;18.854;2023-05-11T00:31:57;101469.75;;;11.80;46.66
55044;BME280;54902;50.420;18.854;2023-05-11T00:32:28;101477.08;;;11.79;46.69
55044;BME280;54902;50.420;18.854;2023-05-11T00:32:59;101475.32;;;11.78;46.69
55044;BME280;54902;50.420;18.854;2023-05-11T00:33:30;101474.45;;;11.78;46.68
55044;BME280;54902;50.420;18.854;2023-05-11T00:34:01;101475.32;;;11.78;46.68
55044;BME280;54902;50.420;18.854;2023-05-11T00:34:31;101468.98;;;11.78;46.69
55044;BME280;54902;50.420;18.854;2023-05-11T00:35:03;101471.84;;;11.76;46.74
55044;BME280;54902;50.420;18.854;2023-05-11T00:35:34;101475.45;;;11.77;46.75
55044;BME280;54902;50.420;18.854;2023-05-11T00:36:05;101476.34;;;11.77;46.74
55044;BME280;54902;50.420;18.854;2023-05-11T00:36:37;101483.77;;;11.75;46.75
55044;BME280;54902;50.420;18.854;2023-05-11T00:37:09;101482.80;;;11.76;46.79
55044;BME280;54902;50.420;18.854;2023-05-11T00:37:40;101481.04;;;11.75;46.75
55044;BME280;54902;50.420;18.854;2023-05-11T00:38:11;101480.17;;;11.75;46.85
55044;BME280;54902;50.420;18.854;2023-05-11T00:38:42;101478.43;;;11.74;46.90
55044;BME280;54902;50.420;18.854;2023-05-11T00:39:12;101478.43;;;11.74;46.87
55044;BME280;54902;50.420;18.854;2023-05-11T00:39:43;101484.77;;;11.74;46.87
55044;BME280;54902;50.420;18.854;2023-05-11T00:40:15;101484.88;;;11.73;46.92
55044;BME280;54902;50.420;18.854;2023-05-11T00:40:48;101492.23;;;11.72;46.89
55044;BME280;54902;50.420;18.854;2023-05-11T00:41:19;101478.67;;;11.71;46.89
55044;BME280;54902;50.420;18.854;2023-05-11T00:41:51;101479.66;;;11.70;46.89
55044;BME280;54902;50.420;18.854;2023-05-11T00:42:22;101475.17;;;11.69;46.87
55044;BME280;54902;50.420;18.854;2023-05-11T00:42:53;101478.92;;;11.68;46.89
55044;BME280;54902;50.420;18.854;2023-05-11T00:43:24;101483.38;;;11.69;46.88
55044;BME280;54902;50.420;18.854;2023-05-11T00:43:55;101484.40;;;11.68;46.94
55044;BME280;54902;50.420;18.854;2023-05-11T00:44:26;101475.30;;;11.67;46.97
55044;BME280;54902;50.420;18.854;2023-05-11T00:44:57;101481.75;;;11.66;46.98
55044;BME280;54902;50.420;18.854;2023-05-11T00:45:28;101485.49;;;11.65;47.01
55044;BME280;54902;50.420;18.854;2023-05-11T00:46:01;101471.91;;;11.64;46.97
55044;BME280;54902;50.420;18.854;2023-05-11T00:46:33;101485.71;;;11.62;46.98
55044;BME280;54902;50.420;18.854;2023-05-11T00:47:04;101474.77;;;11.62;46.98
55044;BME280;54902;50.420;18.854;2023-05-11T00:47:35;101471.30;;;11.61;46.96
55044;BME280;54902;50.420;18.854;2023-05-11T00:48:06;101469.54;;;11.60;46.95
55044;BME280;54902;50.420;18.854;2023-05-11T00:48:38;101480.61;;;11.58;46.92
55044;BME280;54902;50.420;18.854;2023-05-11T00:49:09;101479.84;;;11.56;46.94
55044;BME280;54902;50.420;18.854;2023-05-11T00:49:41;101478.98;;;11.56;46.93
55044;BME280;54902;50.420;18.854;2023-05-11T00:50:13;101472.64;;;11.55;46.89
55044;BME280;54902;50.420;18.854;2023-05-11T00:50:45;101479.09;;;11.54;46.93
55044;BME280;54902;50.420;18.854;2023-05-11T00:51:16;101480.95;;;11.54;46.93
55044;BME280;54902;50.420;18.854;2023-05-11T00:51:48;101477.47;;;11.52;46.93
55044;BME280;54902;50.420;18.854;2023-05-11T00:52:20;101478.33;;;11.52;46.97
55044;BME280;54902;50.420;18.854;2023-05-11T00:52:51;101482.17;;;11.50;47.06
55044;BME280;54902;50.420;18.854;2023-05-11T00:53:22;101478.57;;;11.49;47.05
55044;BME280;54902;50.420;18.854;2023-05-11T00:53:53;101477.80;;;11.47;47.07
55044;BME280;54902;50.420;18.854;2023-05-11T00:54:25;101483.27;;;11.47;47.05
55044;BME280;54902;50.420;18.854;2023-05-11T00:54:57;101486.01;;;11.47;47.07
55044;BME280;54902;50.420;18.854;2023-05-11T00:55:28;101482.49;;;11.45;47.05
55044;BME280;54902;50.420;18.854;2023-05-11T00:56:00;101485.23;;;11.45;47.08
55044;BME280;54902;50.420;18.854;2023-05-11T00:56:31;101479.03;;;11.43;47.09
55044;BME280;54902;50.420;18.854;2023-05-11T00:57:02;101484.50;;;11.43;47.10
55044;BME280;54902;50.420;18.854;2023-05-11T00:57:33;101488.21;;;11.42;47.11
55044;BME280;54902;50.420;18.854;2023-05-11T00:58:05;101477.40;;;11.41;47.07
55044;BME280;54902;50.420;18.854;2023-05-11T00:58:36;101481.97;;;11.40;47.11
55044;BME280;54902;50.420;18.854;2023-05-11T00:59:08;101479.34;;;11.39;47.07
55044;BME280;54902;50.420;18.854;2023-05-11T00:59:40;101481.23;;;11.38;47.07
55044;BME280;54902;50.420;18.854;2023-05-11T01:00:11;101479.48;;;11.37;47.13
55044;BME280;54902;50.420;18.854;2023-05-11T01:00:43;101481.44;;;11.35;47.14
55044;BME280;54902;50.420;18.854;2023-05-11T01:01:14;101483.32;;;11.35;47.16
55044;BME280;54902;50.420;18.854;2023-05-11T01:01:48;101485.19;;;11.34;47.14
55044;BME280;54902;50.420;18.854;2023-05-11T01:02:19;101482.66;;;11.31;47.18
55044;BME280;54902;50.420;18.854;2023-05-11T01:02:50;101482.66;;;11.31;47.20
55044;BME280;54902;50.420;18.854;2023-05-11T01:03:22;101484.66;;;11.29;47.19
55044;BME280;54902;50.420;18.854;2023-05-11T01:03:53;101474.70;;;11.28;47.27
55044;BME280;54902;50.420;18.854;2023-05-11T01:04:25;101477.55;;;11.27;47.27
55044;BME280;54902;50.420;18.854;2023-05-11T01:04:56;101487.63;;;11.26;47.29
55044;BME280;54902;50.420;18.854;2023-05-11T01:05:40;101478.66;;;11.24;47.31
55044;BME280;54902;50.420;18.854;2023-05-11T01:06:20;101480.65;;;11.22;47.30
55044;BME280;54902;50.420;18.854;2023-05-11T01:07:10;101464.92;;;11.13;47.28
55044;BME280;54902;50.420;18.854;2023-05-11T01:07:42;101477.38;;;11.17;47.38
55044;BME280;54902;50.420;18.854;2023-05-11T01:09:05;101484.07;;;11.13;47.40
55044;BME280;54902;50.420;18.854;2023-05-11T01:09:07;101481.95;;;11.17;47.32
55044;BME280;54902;50.420;18.854;2023-05-11T01:10:30;101480.68;;;11.10;47.37
55044;BME280;54902;50.420;18.854;2023-05-11T01:11:52;101477.41;;;11.05;47.43
55044;BME280;54902;50.420;18.854;2023-05-11T01:14:56;101480.73;;;10.98;47.53
55044;BME280;54902;50.420;18.854;2023-05-11T01:16:18;101481.95;;;10.94;47.55
55044;BME280;54902;50.420;18.854;2023-05-11T01:16:55;101481.18;;;10.92;47.55
55044;BME280;54902;50.420;18.854;2023-05-11T01:19:10;101485.37;;;10.85;47.62
55044;BME280;54902;50.420;18.854;2023-05-11T01:19:45;101482.75;;;10.83;47.61
55044;BME280;54902;50.420;18.854;2023-05-11T01:20:24;101483.85;;;10.81;47.62
55044;BME280;54902;50.420;18.854;2023-05-11T01:21:00;101483.07;;;10.79;47.60
55044;BME280;54902;50.420;18.854;2023-05-11T01:21:32;101483.19;;;10.77;47.58
55044;BME280;54902;50.420;18.854;2023-05-11T01:22:15;101480.56;;;10.76;47.51
55044;BME280;54902;50.420;18.854;2023-05-11T01:27:55;101478.84;;;10.62;47.78
55044;BME280;54902;50.420;18.854;2023-05-11T01:30:47;101478.43;;;10.56;47.72
55044;BME280;54902;50.420;18.854;2023-05-11T01:31:20;101481.27;;;10.54;47.73
55044;BME280;54902;50.420;18.854;2023-05-11T01:31:53;101476.78;;;10.53;47.66
55044;BME280;54902;50.420;18.854;2023-05-11T01:32:26;101482.37;;;10.52;47.73
55044;BME280;54902;50.420;18.854;2023-05-11T01:33:05;101480.61;;;10.51;47.82
55044;BME280;54902;50.420;18.854;2023-05-11T01:33:43;101480.73;;;10.49;47.88
55044;BME280;54902;50.420;18.854;2023-05-11T01:34:17;101468.59;;;10.41;47.87
55044;BME280;54902;50.420;18.854;2023-05-11T01:34:55;101473.62;;;10.47;47.90
55044;BME280;54902;50.420;18.854;2023-05-11T01:35:30;101482.80;;;10.46;47.91
55044;BME280;54902;50.420;18.854;2023-05-11T01:36:06;101484.78;;;10.44;47.93
55044;BME280;54902;50.420;18.854;2023-05-11T01:36:47;101483.02;;;10.43;47.93
55044;BME280;54902;50.420;18.854;2023-05-11T01:37:21;101480.41;;;10.42;48.00
55044;BME280;54902;50.420;18.854;2023-05-11T01:37:56;101474.05;;;10.41;48.03
55044;BME280;54902;50.420;18.854;2023-05-11T01:38:32;101473.20;;;10.41;48.02
55044;BME280;54902;50.420;18.854;2023-05-11T01:39:07;101479.74;;;10.38;48.17
55044;BME280;54902;50.420;18.854;2023-05-11T01:39:48;101482.48;;;10.38;48.14
55044;BME280;54902;50.420;18.854;2023-05-11T01:40:30;101478.96;;;10.36;48.15
55044;BME280;54902;50.420;18.854;2023-05-11T01:41:00;101474.51;;;10.35;48.17
55044;BME280;54902;50.420;18.854;2023-05-11T01:41:34;101480.09;;;10.34;48.26
55044;BME280;54902;50.420;18.854;2023-05-11T01:42:10;101475.60;;;10.33;48.23
55044;BME280;54902;50.420;18.854;2023-05-11T01:42:46;101487.62;;;10.30;48.21
55044;BME280;54902;50.420;18.854;2023-05-11T01:43:21;101481.29;;;10.30;48.14
55044;BME280;54902;50.420;18.854;2023-05-11T01:43:57;101487.73;;;10.29;48.15
55044;BME280;54902;50.420;18.854;2023-05-11T01:44:30;101482.38;;;10.27;48.14
55044;BME280;54902;50.420;18.854;2023-05-11T01:45:05;101475.17;;;10.26;48.10
55044;BME280;54902;50.420;18.854;2023-05-11T01:45:40;101481.60;;;10.25;48.10
55044;BME280;54902;50.420;18.854;2023-05-11T01:46:15;101488.05;;;10.24;48.14
55044;BME280;54902;50.420;18.854;2023-05-11T01:46:48;101478.20;;;10.22;48.18
55044;BME280;54902;50.420;18.854;2023-05-11T01:47:21;101484.55;;;10.22;48.16
55044;BME280;54902;50.420;18.854;2023-05-11T01:47:54;101482.80;;;10.21;48.17
55044;BME280;54902;50.420;18.854;2023-05-11T01:48:29;101486.51;;;10.20;48.24
55044;BME280;54902;50.420;18.854;2023-05-11T01:49:05;101487.52;;;10.19;48.23
55044;BME280;54902;50.420;18.854;2023-05-11T01:49:41;101483.02;;;10.18;48.26
55044;BME280;54902;50.420;18.854;2023-05-11T01:50:16;101481.40;;;10.16;48.25
55044;BME280;54902;50.420;18.854;2023-05-11T01:50:50;101476.91;;;10.15;48.29
55044;BME280;54902;50.420;18.854;2023-05-11T01:51:25;101483.34;;;10.14;48.29
55044;BME280;54902;50.420;18.854;2023-05-11T01:51:59;101485.20;;;10.13;48.21
55044;BME280;54902;50.420;18.854;2023-05-11T01:52:32;101478.97;;;10.11;48.21
55044;BME280;54902;50.420;18.854;2023-05-11T01:53:05;101481.70;;;10.11;48.19
55044;BME280;54902;50.420;18.854;2023-05-11T01:53:38;101482.70;;;10.10;48.20
55044;BME280;54902;50.420;18.854;2023-05-11T01:54:12;101480.95;;;10.09;48.29
55044;BME280;54902;50.420;18.854;2023-05-11T01:54:45;101476.46;;;10.08;48.29
55044;BME280;54902;50.420;18.854;2023-05-11T01:55:21;101474.70;;;10.07;48.33
55044;BME280;54902;50.420;18.854;2023-05-11T01:55:54;101483.91;;;10.06;48.32
55044;BME280;54902;50.420;18.854;2023-05-11T01:56:27;101471.46;;;10.02;48.36
55044;BME280;54902;50.420;18.854;2023-05-11T01:56:59;101483.13;;;10.04;48.44
55044;BME280;54902;50.420;18.854;2023-05-11T01:57:32;101489.56;;;10.03;48.47
55044;BME280;54902;50.420;18.854;2023-05-11T01:58:08;101485.96;;;10.03;48.43
55044;BME280;54902;50.420;18.854;2023-05-11T01:58:40;101481.48;;;10.02;48.42
55044;BME280;54902;50.420;18.854;2023-05-11T01:59:13;101487.91;;;10.01;48.44
55044;BME280;54902;50.420;18.854;2023-05-11T01:59:46;101482.45;;;10.01;48.40
55044;BME280;54902;50.420;18.854;2023-05-11T02:00:20;101480.06;;;9.96;48.36
55044;BME280;54902;50.420;18.854;2023-05-11T02:00:52;101479.09;;;9.97;48.39
55044;BME280;54902;50.420;18.854;2023-05-11T02:01:26;101490.13;;;9.96;48.32
55044;BME280;54902;50.420;18.854;2023-05-11T02:01:59;101485.60;;;9.95;48.38
55044;BME280;54902;50.420;18.854;2023-05-11T02:02:31;101491.05;;;9.95;48.44
55044;BME280;54902;50.420;18.854;2023-05-11T02:03:05;101482.09;;;9.93;48.46
55044;BME280;54902;50.420;18.854;2023-05-11T02:03:37;101485.71;;;9.93;48.47
55044;BME280;54902;50.420;18.854;2023-05-11T02:04:10;101481.23;;;9.92;48.47
55044;BME280;54902;50.420;18.854;2023-05-11T02:04:43;101483.20;;;9.90;48.55
55044;BME280;54902;50.420;18.854;2023-05-11T02:05:18;101477.75;;;9.90;48.61
55044;BME280;54902;50.420;18.854;2023-05-11T02:05:51;101483.20;;;9.90;48.70
55044;BME280;54902;50.420;18.854;2023-05-11T02:06:24;101482.32;;;9.90;48.66
55044;BME280;54902;50.420;18.854;2023-05-11T02:06:58;101477.83;;;9.89;48.70
55044;BME280;54902;50.420;18.854;2023-05-11T02:07:31;101485.16;;;9.88;48.70
55044;BME280;54902;50.420;18.854;2023-05-11T02:08:04;101494.31;;;9.87;48.71
55044;BME280;54902;50.420;18.854;2023-05-11T02:08:37;101487.99;;;9.87;48.71
55044;BME280;54902;50.420;18.854;2023-05-11T02:09:11;101495.29;;;9.86;48.82
55044;BME280;54902;50.420;18.854;2023-05-11T02:09:43;101499.88;;;9.86;48.85
55044;BME280;54902;50.420;18.854;2023-05-11T02:10:16;101487.20;;;9.85;48.88
55044;BME280;54902;50.420;18.854;2023-05-11T02:10:49;101486.35;;;9.84;48.83
55044;BME280;54902;50.420;18.854;2023-05-11T02:11:23;101482.75;;;9.84;48.88
55044;BME280;54902;50.420;18.854;2023-05-11T02:11:57;101494.53;;;9.84;48.89
55044;BME280;54902;50.420;18.854;2023-05-11T02:12:30;101489.19;;;9.83;48.94
55044;BME280;54902;50.420;18.854;2023-05-11T02:13:04;101500.00;;;9.84;48.96
55044;BME280;54902;50.420;18.854;2023-05-11T02:13:37;101492.78;;;9.83;49.00
55044;BME280;54902;50.420;18.854;2023-05-11T02:14:11;101490.05;;;9.83;49.05
55044;BME280;54902;50.420;18.854;2023-05-11T02:14:44;101489.19;;;9.83;49.07
55044;BME280;54902;50.420;18.854;2023-05-11T02:15:16;101498.24;;;9.83;49.02
55044;BME280;54902;50.420;18.854;2023-05-11T02:15:50;101491.02;;;9.83;49.00
55044;BME280;54902;50.420;18.854;2023-05-11T02:16:23;101491.02;;;9.83;48.94
55044;BME280;54902;50.420;18.854;2023-05-11T02:16:57;101491.02;;;9.83;48.93
55044;BME280;54902;50.420;18.854;2023-05-11T02:17:30;101480.55;;;9.77;48.93
55044;BME280;54902;50.420;18.854;2023-05-11T02:18:03;101496.48;;;9.83;48.98
55044;BME280;54902;50.420;18.854;2023-05-11T02:18:38;101495.52;;;9.83;48.97
55044;BME280;54902;50.420;18.854;2023-05-11T02:19:12;101487.32;;;9.83;48.94
55044;BME280;54902;50.420;18.854;2023-05-11T02:19:44;101487.32;;;9.83;48.91
55044;BME280;54902;50.420;18.854;2023-05-11T02:20:17;101483.63;;;9.84;48.86
55044;BME280;54902;50.420;18.854;2023-05-11T02:20:49;101484.59;;;9.83;48.92
55044;BME280;54902;50.420;18.854;2023-05-11T02:21:21;101494.53;;;9.84;48.94
55044;BME280;54902;50.420;18.854;2023-05-11T02:21:54;101498.13;;;9.85;48.91
55044;BME280;54902;50.420;18.854;2023-05-11T02:22:27;101496.29;;;9.85;48.88
55044;BME280;54902;50.420;18.854;2023-05-11T02:22:59;101496.29;;;9.85;48.89
55044;BME280;54902;50.420;18.854;2023-05-11T02:23:31;101487.09;;;9.86;48.89
55044;BME280;54902;50.420;18.854;2023-05-11T02:24:05;101480.79;;;9.86;48.98
55044;BME280;54902;50.420;18.854;2023-05-11T02:24:38;101483.40;;;9.87;49.04
55044;BME280;54902;50.420;18.854;2023-05-11T02:25:10;101488.21;;;9.84;49.03
55044;BME280;54902;50.420;18.854;2023-05-11T02:25:42;101488.85;;;9.87;49.11
55044;BME280;54902;50.420;18.854;2023-05-11T02:26:15;101485.16;;;9.88;49.14
55044;BME280;54902;50.420;18.854;2023-05-11T02:26:46;101484.18;;;9.89;49.12
55044;BME280;54902;50.420;18.854;2023-05-11T02:27:17;101481.45;;;9.89;49.21
55044;BME280;54902;50.420;18.854;2023-05-11T02:27:48;101486.01;;;9.89;49.19
55044;BME280;54902;50.420;18.854;2023-05-11T02:28:19;101487.77;;;9.90;49.16
55044;BME280;54902;50.420;18.854;2023-05-11T02:28:51;101488.66;;;9.90;49.18
55044;BME280;54902;50.420;18.854;2023-05-11T02:29:22;101490.50;;;9.90;49.18
55044;BME280;54902;50.420;18.854;2023-05-11T02:29:53;101494.13;;;9.90;49.32
55044;BME280;54902;50.420;18.854;2023-05-11T02:30:26;101490.38;;;9.91;49.28
55044;BME280;54902;50.420;18.854;2023-05-11T02:31:42;101485.93;;;9.90;49.40
55044;BME280;54902;50.420;18.854;2023-05-11T02:32:17;101487.66;;;9.91;49.34
55044;BME280;54902;50.420;18.854;2023-05-11T02:32:54;101488.66;;;9.90;49.29
55044;BME280;54902;50.420;18.854;2023-05-11T02:33:33;101487.66;;;9.91;49.33
55044;BME280;54902;50.420;18.854;2023-05-11T02:34:11;101495.84;;;9.91;49.37
55044;BME280;54902;50.420;18.854;2023-05-11T02:35:00;101484.93;;;9.91;49.39
55044;BME280;54902;50.420;18.854;2023-05-11T02:35:37;101483.96;;;9.92;49.39
55044;BME280;54902;50.420;18.854;2023-05-11T02:36:13;101499.35;;;9.93;49.39
55044;BME280;54902;50.420;18.854;2023-05-11T02:36:47;101488.44;;;9.93;49.39
55044;BME280;54902;50.420;18.854;2023-05-11T02:37:22;101490.20;;;9.94;49.41
55044;BME280;54902;50.420;18.854;2023-05-11T02:37:56;101489.30;;;9.94;49.39
55044;BME280;54902;50.420;18.854;2023-05-11T02:38:33;101488.44;;;9.93;49.35
55044;BME280;54902;50.420;18.854;2023-05-11T02:39:07;101496.52;;;9.95;49.33
55044;BME280;54902;50.420;18.854;2023-05-11T02:39:44;101488.32;;;9.95;49.33
55044;BME280;54902;50.420;18.854;2023-05-11T02:40:17;101487.39;;;9.96;49.35
55044;BME280;54902;50.420;18.854;2023-05-11T02:40:54;101486.49;;;9.95;49.42
55044;BME280;54902;50.420;18.854;2023-05-11T02:41:28;101485.53;;;9.96;49.40
55044;BME280;54902;50.420;18.854;2023-05-11T02:42:12;101490.02;;;9.97;49.44
55044;BME280;54902;50.420;18.854;2023-05-11T02:42:42;101482.68;;;9.98;49.45
55044;BME280;54902;50.420;18.854;2023-05-11T02:43:20;101483.58;;;9.98;49.45
55044;BME280;54902;50.420;18.854;2023-05-11T02:43:55;101478.12;;;9.98;49.41
55044;BME280;54902;50.420;18.854;2023-05-11T02:44:30;101489.90;;;9.99;49.46
55044;BME280;54902;50.420;18.854;2023-05-11T02:45:06;101486.19;;;10.00;49.48
55044;BME280;54902;50.420;18.854;2023-05-11T02:45:42;101489.79;;;10.00;49.50
55044;BME280;54902;50.420;18.854;2023-05-11T02:46:17;101479.72;;;10.01;49.46
55044;BME280;54902;50.420;18.854;2023-05-11T02:46:50;101486.08;;;10.01;49.51
55044;BME280;54902;50.420;18.854;2023-05-11T02:47:26;101482.38;;;10.02;49.45
55044;BME280;54902;50.420;18.854;2023-05-11T02:48:06;101487.84;;;10.02;49.45
55044;BME280;54902;50.420;18.854;2023-05-11T02:48:41;101482.38;;;10.02;49.47
55044;BME280;54902;50.420;18.854;2023-05-11T02:49:17;101482.38;;;10.02;49.46
55044;BME280;54902;50.420;18.854;2023-05-11T02:49:50;101484.10;;;10.03;49.45
55044;BME280;54902;50.420;18.854;2023-05-11T02:50:28;101484.10;;;10.03;49.49
55044;BME280;54902;50.420;18.854;2023-05-11T02:51:01;101478.64;;;10.03;49.46
55044;BME280;54902;50.420;18.854;2023-05-11T02:51:36;101476.91;;;10.02;49.45
55044;BME280;54902;50.420;18.854;2023-05-11T02:52:09;101485.85;;;10.04;49.42
55044;BME280;54902;50.420;18.854;2023-05-11T02:52:44;101484.10;;;10.03;49.37
55044;BME280;54902;50.420;18.854;2023-05-11T02:53:17;101477.66;;;10.04;49.37
55044;BME280;54902;50.420;18.854;2023-05-11T02:53:51;101485.85;;;10.04;49.38
55044;BME280;54902;50.420;18.854;2023-05-11T02:54:25;101480.40;;;10.04;49.43
55044;BME280;54902;50.420;18.854;2023-05-11T02:54:59;101482.16;;;10.05;49.39
55044;BME280;54902;50.420;18.854;2023-05-11T02:55:31;101476.69;;;10.05;49.35
55044;BME280;54902;50.420;18.854;2023-05-11T02:56:02;101482.16;;;10.05;49.34
55044;BME280;54902;50.420;18.854;2023-05-11T02:56:34;101480.29;;;10.06;49.35
55044;BME280;54902;50.420;18.854;2023-05-11T02:57:05;101479.42;;;10.05;49.33
55044;BME280;54902;50.420;18.854;2023-05-11T02:57:37;101479.42;;;10.05;49.34
55044;BME280;54902;50.420;18.854;2023-05-11T02:58:08;101485.73;;;10.06;49.33
55044;BME280;54902;50.420;18.854;2023-05-11T02:58:39;101483.01;;;10.06;49.37
55044;BME280;54902;50.420;18.854;2023-05-11T02:59:11;101487.61;;;10.05;49.36
55044;BME280;54902;50.420;18.854;2023-05-11T02:59:42;101485.63;;;10.07;49.39
55044;BME280;54902;50.420;18.854;2023-05-11T03:00:15;101476.69;;;10.05;49.42
55044;BME280;54902;50.420;18.854;2023-05-11T03:00:47;101483.01;;;10.06;49.41
55044;BME280;54902;50.420;18.854;2023-05-11T03:01:18;101485.73;;;10.06;49.38
55044;BME280;54902;50.420;18.854;2023-05-11T03:01:49;101487.61;;;10.05;49.40
55044;BME280;54902;50.420;18.854;2023-05-11T03:02:21;101486.76;;;10.05;49.42
55044;BME280;54902;50.420;18.854;2023-05-11T03:02:52;101489.37;;;10.06;49.39
55044;BME280;54902;50.420;18.854;2023-05-11T03:03:24;101483.01;;;10.06;49.37
55044;BME280;54902;50.420;18.854;2023-05-11T03:03:56;101485.73;;;10.06;49.40
55044;BME280;54902;50.420;18.854;2023-05-11T03:04:27;101480.40;;;10.04;49.43
55044;BME280;54902;50.420;18.854;2023-05-11T03:04:58;101482.16;;;10.05;49.44
55044;BME280;54902;50.420;18.854;2023-05-11T03:05:29;101483.01;;;10.06;49.45
55044;BME280;54902;50.420;18.854;2023-05-11T03:06:00;101489.37;;;10.06;49.45